Terminal Aerodrome Forecast
Issued by NWS Sterling, VA

Current Version | Previous Version | Graphics & Text | Print | Product List | Glossary On
Versions: 1 2 3 4 5 6 7 8 9 10 11 12
000
FTUS41 KLWX 222320
TAFMRB
TAF
KMRB 222320Z 2300/2324 17004KT P6SM BKN130
     FM230600 VRB03KT 4SM BR BKN050
     FM231100 00000KT 1 1/2SM BR BKN050
     FM231300 VRB03KT 4SM BR SCT050
     FM231400 VRB03KT P6SM SCT050
     FM231700 20005KT P6SM BKN050=

USA.gov is the U.S. government's official web portal to all federal, state and local government web resources and services.